Time;durP1;ratioP1;P1;durP2;ratioP2;P2;SDS_P1;SDS_P2;PMS_P1;PMS_P2;Temp;Humidity;BMP_temperature;BMP_pressure;BME280_temperature;BME280_humidity;BME280_pressure;Samples;Min_cycle;Max_cycle;Signal;HPM_P1;HPM_P2
2022/11/23 00:02:17;;;;;;;21.42;18.38;;;7.80;99.90;;;;;;5065819;28;20045;-71
2022/11/23 00:04:43;;;;;;;24.67;19.23;;;7.80;99.90;;;;;;5073556;28;20045;-71
2022/11/23 00:07:08;;;;;;;24.60;19.20;;;7.90;99.90;;;;;;5062583;28;20101;-71
2022/11/23 00:09:34;;;;;;;25.95;19.00;;;7.80;99.90;;;;;;5041099;28;20053;-71
2022/11/23 00:12:00;;;;;;;20.38;17.65;;;8.00;99.90;;;;;;5059366;28;20041;-71
2022/11/23 00:14:25;;;;;;;24.98;19.23;;;7.90;99.90;;;;;;5045744;28;20063;-71
2022/11/23 00:16:51;;;;;;;24.98;18.35;;;7.90;99.90;;;;;;5046062;28;20136;-71
2022/11/23 00:19:17;;;;;;;23.35;18.67;;;7.90;99.90;;;;;;5056354;28;20072;-71
2022/11/23 00:21:42;;;;;;;24.20;18.02;;;8.00;99.90;;;;;;5065140;28;20041;-71
2022/11/23 00:24:11;;;;;;;23.48;19.58;;;7.90;99.90;;;;;;5065675;28;20166;-71
2022/11/23 00:26:37;;;;;;;23.25;19.42;;;7.90;99.90;;;;;;5049192;28;20120;-71
2022/11/23 00:29:03;;;;;;;27.65;20.30;;;7.90;99.90;;;;;;5088624;28;20080;-71
2022/11/23 00:31:29;;;;;;;26.85;19.83;;;7.90;99.90;;;;;;5062874;28;20326;-71
2022/11/23 00:33:55;;;;;;;22.35;18.35;;;8.00;99.90;;;;;;5051298;28;20049;-71
2022/11/23 00:36:22;;;;;;;21.55;18.02;;;8.10;99.90;;;;;;5049944;28;20064;-71
2022/11/23 00:38:49;;;;;;;24.75;18.77;;;8.10;99.90;;;;;;5064341;28;20053;-71
2022/11/23 00:41:18;;;;;;;25.48;19.27;;;8.10;99.90;;;;;;5076756;28;20106;-71
2022/11/23 00:43:44;;;;;;;29.60;19.35;;;8.00;99.90;;;;;;5056523;28;20085;-71
2022/11/23 00:46:21;;;;;;;26.77;19.35;;;8.00;99.90;;;;;;5058787;28;20063;-71
2022/11/23 00:48:49;;;;;;;24.77;18.63;;;8.00;99.90;;;;;;5055316;28;20052;-71
2022/11/23 00:51:18;;;;;;;24.88;18.30;;;8.00;99.90;;;;;;5067101;28;20489;-71
2022/11/23 00:53:44;;;;;;;24.23;18.00;;;8.00;99.90;;;;;;5045662;28;20053;-71
2022/11/23 00:56:10;;;;;;;25.20;17.90;;;8.00;99.90;;;;;;5066557;28;20048;-71
2022/11/23 00:58:39;;;;;;;25.13;18.15;;;8.00;99.90;;;;;;5077167;28;20106;-71
2022/11/23 01:01:09;;;;;;;23.13;17.77;;;8.00;99.90;;;;;;5065980;28;20503;-71
2022/11/23 01:03:37;;;;;;;25.63;17.43;;;8.00;99.90;;;;;;5043379;28;20306;-71
2022/11/23 01:06:27;;;;;;;25.20;17.48;;;8.20;99.90;;;;;;5068958;28;20282;-71
2022/11/23 01:08:56;;;;;;;27.23;17.25;;;8.20;99.90;;;;;;5054422;28;20060;-71
2022/11/23 01:11:24;;;;;;;22.35;16.20;;;8.20;99.90;;;;;;5065085;28;20052;-71
2022/11/23 01:13:50;;;;;;;20.23;16.05;;;8.10;99.90;;;;;;5052851;28;20053;-71
2022/11/23 01:16:19;;;;;;;21.60;16.80;;;8.10;99.90;;;;;;5089147;28;20570;-71
2022/11/23 01:18:45;;;;;;;19.40;16.55;;;8.10;99.90;;;;;;5053021;28;20045;-71
2022/11/23 01:21:10;;;;;;;23.95;16.55;;;8.20;99.90;;;;;;5039545;28;20561;-71
2022/11/23 01:23:36;;;;;;;23.20;16.20;;;8.20;99.90;;;;;;5052352;28;20049;-71
2022/11/23 01:26:09;;;;;;;22.25;15.60;;;8.20;99.90;;;;;;5054668;28;20108;-71
2022/11/23 01:28:37;;;;;;;23.08;15.80;;;8.20;99.90;;;;;;5085388;28;20056;-71
2022/11/23 01:31:03;;;;;;;20.85;16.02;;;8.20;99.90;;;;;;5084695;28;20037;-71
2022/11/23 01:33:29;;;;;;;21.23;16.15;;;8.10;99.90;;;;;;5041655;28;20049;-71
2022/11/23 01:35:55;;;;;;;18.35;16.02;;;8.20;99.90;;;;;;5054657;28;20095;-71
2022/11/23 01:38:20;;;;;;;24.05;16.85;;;8.10;99.90;;;;;;5085908;28;20048;-71
2022/11/23 01:40:46;;;;;;;24.08;15.57;;;8.20;99.90;;;;;;5072273;28;20128;-70
2022/11/23 01:43:17;;;;;;;19.52;15.63;;;8.20;99.90;;;;;;5051957;28;20045;-71
2022/11/23 01:45:52;;;;;;;24.63;17.77;;;8.20;99.90;;;;;;5052673;28;20044;-71
2022/11/23 01:48:22;;;;;;;22.02;15.88;;;8.20;99.90;;;;;;5053065;28;20052;-71
2022/11/23 01:50:51;;;;;;;20.98;16.02;;;8.30;99.90;;;;;;5052674;28;20048;-71
2022/11/23 01:53:18;;;;;;;21.98;16.65;;;8.20;99.90;;;;;;5052323;28;20088;-71
2022/11/23 01:55:47;;;;;;;18.55;16.13;;;8.10;99.90;;;;;;5085891;28;20595;-71
2022/11/23 01:58:16;;;;;;;21.30;15.90;;;8.30;99.90;;;;;;5068639;28;20123;-71
2022/11/23 02:00:43;;;;;;;22.58;16.23;;;8.30;99.90;;;;;;5066718;28;20404;-71
2022/11/23 02:03:09;;;;;;;20.40;15.80;;;8.30;99.90;;;;;;5052360;28;20057;-71
2022/11/23 02:05:45;;;;;;;22.25;15.85;;;8.20;99.90;;;;;;5054482;28;20056;-71
2022/11/23 02:08:12;;;;;;;22.00;15.98;;;8.30;99.90;;;;;;5085556;28;20451;-71
2022/11/23 02:10:38;;;;;;;21.52;15.95;;;8.20;99.90;;;;;;5052694;28;20049;-71
2022/11/23 02:13:05;;;;;;;20.73;15.27;;;8.20;99.90;;;;;;5051453;28;20052;-71
2022/11/23 02:15:33;;;;;;;21.92;15.55;;;8.10;99.90;;;;;;5052397;28;20053;-71
2022/11/23 02:17:59;;;;;;;19.48;14.85;;;8.10;99.90;;;;;;5053667;28;20103;-71
2022/11/23 02:20:25;;;;;;;21.42;15.35;;;8.10;99.90;;;;;;5038396;28;20558;-71
2022/11/23 02:22:57;;;;;;;18.33;16.38;;;8.10;99.90;;;;;;5072032;28;20041;-71
2022/11/23 02:25:44;;;;;;;20.85;15.73;;;8.20;99.90;;;;;;5053374;28;20486;-71
2022/11/23 02:28:12;;;;;;;20.40;14.77;;;8.30;99.90;;;;;;5050165;28;20057;-71
2022/11/23 02:30:39;;;;;;;22.95;15.55;;;8.20;99.90;;;;;;5039039;28;20056;-71
2022/11/23 02:33:06;;;;;;;18.75;15.30;;;8.20;99.90;;;;;;5052847;28;20052;-71
2022/11/23 02:35:33;;;;;;;18.60;14.95;;;8.30;99.90;;;;;;5080594;28;20087;-71
2022/11/23 02:38:00;;;;;;;17.67;14.20;;;8.20;99.90;;;;;;5051747;28;20086;-71
2022/11/23 02:40:30;;;;;;;19.30;15.27;;;8.20;99.90;;;;;;5050494;28;20063;-71
2022/11/23 02:42:56;;;;;;;19.98;15.70;;;8.30;99.90;;;;;;5069970;28;20063;-71
2022/11/23 02:45:32;;;;;;;20.73;15.43;;;8.30;99.90;;;;;;5083024;28;20041;-71
2022/11/23 02:47:58;;;;;;;18.58;14.50;;;8.30;99.90;;;;;;5049857;28;20104;-71
2022/11/23 02:50:24;;;;;;;19.27;14.27;;;8.20;99.90;;;;;;5067630;28;20048;-71
2022/11/23 02:52:50;;;;;;;19.50;15.38;;;8.20;99.90;;;;;;5086107;28;20049;-71
2022/11/23 02:55:16;;;;;;;22.05;14.82;;;8.20;99.90;;;;;;5051126;28;20122;-71
2022/11/23 02:57:41;;;;;;;18.67;14.20;;;8.30;99.90;;;;;;5053869;28;20041;-71
2022/11/23 03:00:08;;;;;;;19.75;13.70;;;8.20;99.90;;;;;;5065009;28;20045;-71
2022/11/23 03:02:33;;;;;;;19.13;15.10;;;8.30;99.90;;;;;;5069577;28;20105;-71
2022/11/23 03:04:59;;;;;;;19.60;14.60;;;8.30;99.90;;;;;;5049554;28;20041;-71
2022/11/23 03:07:25;;;;;;;18.42;15.05;;;8.30;99.90;;;;;;5049216;28;20044;-71
2022/11/23 03:09:51;;;;;;;21.73;14.85;;;8.30;99.90;;;;;;5038331;28;20071;-71
2022/11/23 03:12:16;;;;;;;19.27;14.68;;;8.30;99.90;;;;;;5033817;28;20044;-71
2022/11/23 03:14:42;;;;;;;21.25;13.75;;;8.40;99.90;;;;;;5050499;28;20114;-71
2022/11/23 03:17:08;;;;;;;20.13;13.70;;;8.30;99.90;;;;;;5070239;28;20040;-71
2022/11/23 03:19:33;;;;;;;19.50;14.15;;;8.30;99.90;;;;;;5049695;28;20049;-71
2022/11/23 03:21:59;;;;;;;20.75;13.88;;;8.40;99.90;;;;;;5052341;28;20044;-71
2022/11/23 03:24:24;;;;;;;23.98;14.70;;;8.30;99.90;;;;;;5049419;28;20083;-71
2022/11/23 03:26:50;;;;;;;22.40;14.43;;;8.40;99.90;;;;;;5036060;28;20833;-71
2022/11/23 03:29:16;;;;;;;24.98;14.75;;;8.30;99.90;;;;;;5049648;28;20049;-71
2022/11/23 03:31:42;;;;;;;21.80;14.50;;;8.20;99.90;;;;;;5050987;28;20100;-71
2022/11/23 03:34:08;;;;;;;23.15;14.13;;;8.30;99.90;;;;;;5057197;28;20048;-71
2022/11/23 03:36:34;;;;;;;21.40;15.07;;;8.30;99.90;;;;;;5050113;28;20044;-71
2022/11/23 03:39:00;;;;;;;21.77;13.55;;;8.30;99.90;;;;;;5068229;28;20067;-71
2022/11/23 03:41:25;;;;;;;19.65;14.15;;;8.30;99.90;;;;;;5068765;28;20057;-71
2022/11/23 03:43:51;;;;;;;20.75;12.75;;;8.30;99.90;;;;;;5063446;28;20055;-71
2022/11/23 03:46:17;;;;;;;23.10;14.50;;;8.30;99.90;;;;;;5057757;28;20071;-71
2022/11/23 03:48:43;;;;;;;22.42;14.77;;;8.40;99.90;;;;;;5048384;28;20052;-71
2022/11/23 03:51:08;;;;;;;26.65;15.10;;;8.40;99.90;;;;;;5044541;28;20040;-71
2022/11/23 03:53:34;;;;;;;22.52;14.85;;;8.30;99.90;;;;;;5079805;28;20060;-71
2022/11/23 03:56:00;;;;;;;23.35;14.18;;;8.30;99.90;;;;;;5061262;28;20052;-71
2022/11/23 03:58:25;;;;;;;24.70;15.30;;;8.20;99.90;;;;;;5064140;28;20048;-71
2022/11/23 04:00:51;;;;;;;24.27;14.75;;;8.30;99.90;;;;;;5080665;28;20048;-71
2022/11/23 04:03:17;;;;;;;25.17;15.32;;;8.30;99.90;;;;;;5075114;28;20044;-71
2022/11/23 04:05:42;;;;;;;24.75;15.25;;;8.30;99.90;;;;;;5059160;28;20044;-71
2022/11/23 04:08:08;;;;;;;25.85;15.20;;;8.30;99.90;;;;;;5065377;28;20079;-71
2022/11/23 04:10:34;;;;;;;25.73;16.08;;;8.30;99.90;;;;;;5063942;28;20044;-71
2022/11/23 04:13:01;;;;;;;26.25;15.82;;;8.20;99.90;;;;;;5064116;28;20056;-71
2022/11/23 04:15:27;;;;;;;30.88;16.10;;;8.30;99.90;;;;;;5063897;28;20052;-71
2022/11/23 04:17:54;;;;;;;23.48;15.65;;;8.30;99.90;;;;;;5065652;28;20067;-71
2022/11/23 04:20:20;;;;;;;27.00;16.38;;;8.30;99.90;;;;;;5082172;28;20256;-71
2022/11/23 04:22:45;;;;;;;30.30;17.05;;;8.40;99.90;;;;;;5083915;28;20100;-71
2022/11/23 04:25:11;;;;;;;30.70;16.67;;;8.50;99.90;;;;;;5065152;28;20052;-71
2022/11/23 04:27:36;;;;;;;28.73;17.33;;;8.50;99.90;;;;;;5076203;28;20057;-71
2022/11/23 04:30:04;;;;;;;28.13;18.00;;;8.40;99.90;;;;;;5055380;28;20053;-71
2022/11/23 04:32:29;;;;;;;26.35;17.15;;;8.30;99.90;;;;;;5101141;28;20048;-71
2022/11/23 04:34:55;;;;;;;27.05;17.48;;;8.50;99.90;;;;;;5054726;28;20048;-71
2022/11/23 04:37:21;;;;;;;30.33;18.10;;;8.30;99.90;;;;;;5049562;28;20045;-71
2022/11/23 04:39:47;;;;;;;32.38;18.88;;;8.40;99.90;;;;;;5063247;28;20101;-71
2022/11/23 04:42:12;;;;;;;27.00;17.42;;;8.40;99.90;;;;;;5049707;28;20041;-71
2022/11/23 04:44:38;;;;;;;29.05;18.13;;;8.50;99.90;;;;;;5050067;28;20060;-71
2022/11/23 04:47:04;;;;;;;31.52;17.33;;;8.50;99.90;;;;;;5068298;28;20060;-71
2022/11/23 04:49:30;;;;;;;26.75;17.23;;;8.40;99.90;;;;;;5050318;28;20049;-71
2022/11/23 04:51:55;;;;;;;35.50;18.45;;;8.40;99.90;;;;;;5050177;28;20045;-72
2022/11/23 04:54:21;;;;;;;31.25;18.77;;;8.50;99.90;;;;;;5046046;28;20052;-71
2022/11/23 04:56:47;;;;;;;35.67;19.63;;;8.40;99.90;;;;;;5050796;28;20052;-71
2022/11/23 04:59:12;;;;;;;33.60;20.95;;;8.40;99.90;;;;;;5079732;28;20056;-71
2022/11/23 05:01:38;;;;;;;36.65;19.52;;;8.40;99.90;;;;;;5052441;28;20048;-71
2022/11/23 05:04:04;;;;;;;33.60;17.48;;;8.40;99.90;;;;;;5076598;28;20079;-71
2022/11/23 05:06:29;;;;;;;32.03;18.77;;;8.40;99.90;;;;;;5059343;28;20041;-71
2022/11/23 05:08:55;;;;;;;33.95;17.63;;;8.40;99.90;;;;;;5060925;28;20051;-71
2022/11/23 05:11:21;;;;;;;36.72;19.08;;;8.40;99.90;;;;;;5059351;28;20111;-71
2022/11/23 05:13:46;;;;;;;26.45;17.08;;;8.50;99.90;;;;;;5080147;28;20052;-71
2022/11/23 05:16:12;;;;;;;32.88;18.15;;;8.40;99.90;;;;;;5061353;28;20048;-71
2022/11/23 05:18:38;;;;;;;32.63;18.20;;;8.50;99.90;;;;;;5081521;28;20064;-71
2022/11/23 05:21:04;;;;;;;31.63;18.40;;;8.30;99.90;;;;;;5061858;28;20066;-71
2022/11/23 05:23:29;;;;;;;31.30;19.35;;;8.40;99.90;;;;;;5056697;28;20069;-71
2022/11/23 05:25:55;;;;;;;40.15;18.88;;;8.40;99.90;;;;;;5046141;28;20032;-71
2022/11/23 05:28:21;;;;;;;33.50;17.60;;;8.50;99.90;;;;;;5066954;28;20109;-71
2022/11/23 05:30:47;;;;;;;30.45;18.40;;;8.60;99.90;;;;;;5064960;28;20041;-71
2022/11/23 05:33:13;;;;;;;30.70;17.77;;;8.50;99.90;;;;;;5066584;28;20054;-71
2022/11/23 05:35:38;;;;;;;25.95;17.05;;;8.50;99.90;;;;;;5081101;28;20042;-71
2022/11/23 05:38:05;;;;;;;26.48;18.08;;;8.60;99.90;;;;;;5060494;28;20125;-71
2022/11/23 05:40:31;;;;;;;34.33;17.05;;;8.50;99.90;;;;;;5063325;28;20138;-71
2022/11/23 05:42:58;;;;;;;26.95;16.52;;;8.60;99.90;;;;;;5085771;28;20060;-71
2022/11/23 05:45:24;;;;;;;31.23;15.65;;;8.50;99.90;;;;;;5062366;28;20072;-71
2022/11/23 05:47:55;;;;;;;24.10;15.15;;;8.50;99.90;;;;;;5067518;28;20040;-71
2022/11/23 05:50:25;;;;;;;23.67;15.00;;;8.50;99.90;;;;;;5101392;28;20036;-71
2022/11/23 05:52:51;;;;;;;29.25;14.35;;;8.50;99.90;;;;;;5068661;28;20052;-71
2022/11/23 05:55:17;;;;;;;23.60;14.75;;;8.50;99.90;;;;;;5100711;28;20122;-71
2022/11/23 05:57:42;;;;;;;30.33;14.75;;;8.40;99.90;;;;;;5067961;28;20052;-71
2022/11/23 06:00:09;;;;;;;29.33;15.27;;;8.50;99.90;;;;;;5041670;28;20045;-71
2022/11/23 06:02:38;;;;;;;25.83;13.25;;;8.40;99.90;;;;;;5086675;28;20080;-71
2022/11/23 06:05:05;;;;;;;22.63;13.48;;;8.40;99.90;;;;;;5053778;28;20040;-71
2022/11/23 06:07:34;;;;;;;23.45;13.45;;;8.30;99.90;;;;;;5042997;28;20065;-71
2022/11/23 06:10:00;;;;;;;30.08;13.63;;;8.30;99.90;;;;;;5059536;28;20048;-71
2022/11/23 06:12:29;;;;;;;26.65;12.52;;;8.20;99.90;;;;;;5020524;28;20135;-72
2022/11/23 06:14:55;;;;;;;21.50;12.03;;;8.20;99.90;;;;;;5065089;28;20239;-72
2022/11/23 06:17:21;;;;;;;23.98;11.80;;;8.20;99.90;;;;;;5083832;28;20044;-72
2022/11/23 06:19:46;;;;;;;28.70;11.50;;;8.20;99.90;;;;;;5082968;28;20074;-72
2022/11/23 06:22:14;;;;;;;27.73;12.35;;;8.20;99.90;;;;;;5079953;28;20060;-71
2022/11/23 06:24:40;;;;;;;22.42;11.80;;;8.10;99.90;;;;;;5077632;28;20059;-71
2022/11/23 06:27:06;;;;;;;21.42;10.90;;;8.10;99.90;;;;;;5067951;28;20141;-71
2022/11/23 06:29:32;;;;;;;19.48;10.90;;;8.10;99.90;;;;;;5066152;28;20084;-72
2022/11/23 06:31:57;;;;;;;18.38;10.23;;;8.10;99.90;;;;;;5038642;28;20049;-72
2022/11/23 06:34:23;;;;;;;22.58;11.05;;;8.20;99.90;;;;;;5048672;28;20079;-71
2022/11/23 06:36:48;;;;;;;17.20;9.68;;;8.10;99.90;;;;;;5042082;28;20045;-71
2022/11/23 06:39:14;;;;;;;19.60;10.85;;;8.10;99.90;;;;;;5086824;28;20044;-71
2022/11/23 06:41:40;;;;;;;21.85;9.60;;;8.20;99.90;;;;;;5035101;28;20053;-71
2022/11/23 06:44:05;;;;;;;20.98;10.13;;;8.00;99.90;;;;;;5045413;28;20104;-70
2022/11/23 06:46:32;;;;;;;18.23;8.63;;;8.10;99.90;;;;;;5041403;28;20076;-71
2022/11/23 06:48:57;;;;;;;21.73;9.45;;;8.10;99.90;;;;;;5064994;28;20072;-72
2022/11/23 06:51:23;;;;;;;16.83;8.52;;;8.10;99.90;;;;;;5050383;28;20052;-71
2022/11/23 06:53:49;;;;;;;15.50;8.80;;;8.00;99.90;;;;;;5052964;28;20063;-72
2022/11/23 06:56:15;;;;;;;15.50;8.18;;;8.00;99.90;;;;;;5059013;28;20127;-69
2022/11/23 06:58:41;;;;;;;20.70;8.75;;;8.00;99.90;;;;;;5056943;28;20086;-71
2022/11/23 07:01:07;;;;;;;18.15;8.07;;;8.00;99.90;;;;;;5056215;28;20527;-71
2022/11/23 07:03:34;;;;;;;19.75;10.00;;;8.00;99.90;;;;;;5057187;28;20048;-72
2022/11/23 07:06:05;;;;;;;18.00;7.78;;;8.10;99.90;;;;;;5072553;28;20045;-72
2022/11/23 07:08:30;;;;;;;16.05;8.00;;;7.90;99.90;;;;;;5050769;28;20091;-72
2022/11/23 07:11:05;;;;;;;17.55;8.18;;;7.90;99.90;;;;;;5088356;28;20052;-72
2022/11/23 07:13:31;;;;;;;19.13;8.52;;;7.90;99.90;;;;;;5043984;28;20053;-69
2022/11/23 07:15:57;;;;;;;15.35;7.43;;;7.90;99.90;;;;;;5063936;28;20120;-70
2022/11/23 07:18:24;;;;;;;19.25;7.60;;;7.90;99.90;;;;;;5077155;28;20104;-72
2022/11/23 07:20:49;;;;;;;18.63;7.18;;;8.00;99.90;;;;;;5058780;28;20190;-72
2022/11/23 07:23:15;;;;;;;12.95;7.32;;;8.00;99.90;;;;;;5049835;28;20554;-72
2022/11/23 07:25:41;;;;;;;17.10;6.90;;;8.00;99.90;;;;;;5065401;28;20455;-72
2022/11/23 07:28:07;;;;;;;13.98;7.18;;;7.90;99.90;;;;;;5034833;28;20053;-72
2022/11/23 07:30:34;;;;;;;18.20;7.10;;;8.00;99.90;;;;;;5028774;28;20044;-72
2022/11/23 07:33:05;;;;;;;15.90;7.35;;;8.00;99.90;;;;;;5027549;28;20561;-72
2022/11/23 07:35:31;;;;;;;16.88;6.93;;;8.00;99.90;;;;;;5063956;28;20053;-72
2022/11/23 07:37:58;;;;;;;18.55;7.40;;;8.00;99.90;;;;;;5039110;28;20045;-72
2022/11/23 07:40:24;;;;;;;16.60;7.10;;;8.00;99.90;;;;;;5043186;28;20659;-72
2022/11/23 07:42:50;;;;;;;17.77;7.45;;;8.00;99.90;;;;;;5055349;28;20064;-72
2022/11/23 07:45:15;;;;;;;15.35;7.25;;;8.00;99.90;;;;;;5066912;28;20513;-72
2022/11/23 07:47:41;;;;;;;14.05;7.05;;;8.10;99.90;;;;;;5041522;28;20040;-72
2022/11/23 07:50:09;;;;;;;20.23;8.40;;;8.00;99.90;;;;;;5032245;28;20083;-72
2022/11/23 07:52:39;;;;;;;17.23;7.03;;;8.00;99.90;;;;;;5056743;28;20053;-72
2022/11/23 07:55:05;;;;;;;15.88;7.25;;;8.10;99.90;;;;;;5019677;28;20068;-72
2022/11/23 07:57:31;;;;;;;18.15;6.63;;;8.10;99.90;;;;;;5056919;28;20041;-72
2022/11/23 07:59:57;;;;;;;18.30;6.95;;;8.10;99.90;;;;;;5032605;28;20096;-71
2022/11/23 08:02:22;;;;;;;14.25;6.85;;;8.20;99.90;;;;;;5065106;28;20043;-70
2022/11/23 08:04:48;;;;;;;15.48;7.05;;;8.20;99.90;;;;;;5026435;28;20044;-70
2022/11/23 08:07:14;;;;;;;18.50;6.95;;;8.20;99.90;;;;;;5059137;28;20057;-70
2022/11/23 08:09:39;;;;;;;12.95;6.25;;;8.20;99.90;;;;;;5048143;28;20060;-70
2022/11/23 08:12:06;;;;;;;12.85;7.47;;;8.30;99.90;;;;;;5044347;28;20048;-69
2022/11/23 08:14:32;;;;;;;13.60;6.78;;;8.20;99.90;;;;;;5040014;28;20052;-72
2022/11/23 08:16:57;;;;;;;16.38;6.45;;;8.20;99.90;;;;;;5046112;28;20049;-70
2022/11/23 08:19:23;;;;;;;15.55;6.70;;;8.30;99.90;;;;;;5024452;28;20057;-70
2022/11/23 08:21:49;;;;;;;14.68;6.63;;;8.30;99.90;;;;;;5053548;28;20048;-70
2022/11/23 08:24:14;;;;;;;12.85;6.18;;;8.30;99.90;;;;;;5020448;28;20045;-70
2022/11/23 08:26:40;;;;;;;16.30;6.78;;;8.30;99.90;;;;;;5031921;28;20044;-70
2022/11/23 08:29:06;;;;;;;16.17;6.90;;;8.30;99.90;;;;;;5043559;28;20051;-70
2022/11/23 08:31:32;;;;;;;15.65;6.47;;;8.30;99.90;;;;;;5043772;28;20045;-70
2022/11/23 08:33:58;;;;;;;19.20;7.03;;;8.30;99.90;;;;;;5053270;28;20049;-70
2022/11/23 08:36:23;;;;;;;13.23;6.82;;;8.30;99.90;;;;;;5060427;28;20060;-71
2022/11/23 08:38:50;;;;;;;13.48;6.35;;;8.40;99.90;;;;;;5041530;28;20084;-72
2022/11/23 08:41:19;;;;;;;19.30;7.18;;;8.40;99.90;;;;;;5062318;28;20045;-72
2022/11/23 08:43:49;;;;;;;16.30;6.18;;;8.40;99.90;;;;;;5062557;28;20409;-72
2022/11/23 08:46:15;;;;;;;14.70;7.57;;;8.40;99.90;;;;;;5051180;28;20048;-72
2022/11/23 08:48:41;;;;;;;17.02;6.60;;;8.40;99.90;;;;;;5061010;28;20067;-72
2022/11/23 08:51:08;;;;;;;16.02;6.53;;;8.40;99.90;;;;;;5075532;28;20133;-72
2022/11/23 08:53:34;;;;;;;18.33;6.90;;;8.50;99.90;;;;;;5055370;28;20056;-70
2022/11/23 08:56:04;;;;;;;13.68;6.22;;;8.40;99.90;;;;;;5036474;28;20036;-70
2022/11/23 08:58:31;;;;;;;16.13;6.57;;;8.50;99.90;;;;;;5066926;28;20052;-70
2022/11/23 09:00:57;;;;;;;14.00;6.13;;;8.50;99.90;;;;;;5079724;28;20048;-70
2022/11/23 09:03:22;;;;;;;15.82;6.10;;;8.50;99.90;;;;;;5059626;28;20046;-70
2022/11/23 09:05:50;;;;;;;16.90;6.65;;;8.50;99.90;;;;;;5042387;28;20048;-70
2022/11/23 09:08:16;;;;;;;14.20;5.85;;;8.50;99.90;;;;;;5068480;28;20048;-70
2022/11/23 09:10:41;;;;;;;19.33;6.80;;;8.50;99.90;;;;;;5042110;28;20044;-70
2022/11/23 09:13:07;;;;;;;17.30;6.93;;;8.60;99.90;;;;;;5053908;28;20063;-71
2022/11/23 09:15:33;;;;;;;16.63;6.10;;;8.70;99.90;;;;;;5057612;28;20059;-71
2022/11/23 09:17:59;;;;;;;20.20;6.00;;;8.70;99.90;;;;;;5075193;28;20500;-70
2022/11/23 09:20:25;;;;;;;16.40;6.32;;;8.70;99.90;;;;;;5074547;28;20053;-71
2022/11/23 09:22:52;;;;;;;17.98;6.60;;;8.80;99.90;;;;;;5056637;28;20049;-70
2022/11/23 09:25:18;;;;;;;16.55;6.90;;;8.80;99.90;;;;;;5029386;28;20056;-72
2022/11/23 09:27:44;;;;;;;20.60;6.88;;;8.80;99.90;;;;;;5055191;28;20079;-68
2022/11/23 09:30:11;;;;;;;21.00;6.57;;;8.80;99.90;;;;;;5061059;28;20098;-69
2022/11/23 09:32:36;;;;;;;15.82;5.93;;;8.90;99.90;;;;;;5070428;28;20041;-66
2022/11/23 09:35:02;;;;;;;15.38;5.15;;;8.90;99.90;;;;;;5073409;28;20037;-70
2022/11/23 09:37:28;;;;;;;18.27;5.55;;;9.10;99.90;;;;;;5052609;28;20105;-70
2022/11/23 09:39:54;;;;;;;17.10;5.07;;;9.10;99.90;;;;;;5045947;28;20068;-71
2022/11/23 09:43:02;;;;;;;14.93;6.15;;;9.20;99.90;;;;;;5049606;28;20060;-70
2022/11/23 09:45:48;;;;;;;16.13;5.18;;;9.20;99.90;;;;;;5038527;28;20053;-70
2022/11/23 09:48:50;;;;;;;9.85;3.85;;;9.30;99.90;;;;;;5071290;28;20098;-70
2022/11/23 09:51:21;;;;;;;16.63;5.20;;;9.30;99.90;;;;;;5047932;28;20601;-70
2022/11/23 09:53:58;;;;;;;15.55;4.43;;;9.10;99.90;;;;;;5048654;28;20045;-70
2022/11/23 09:56:32;;;;;;;14.60;4.47;;;9.30;99.90;;;;;;5060760;28;20657;-70
2022/11/23 09:59:04;;;;;;;18.20;5.05;;;9.20;99.90;;;;;;5046607;28;20080;-71
2022/11/23 10:01:30;;;;;;;17.10;5.07;;;9.20;99.90;;;;;;5048309;28;20140;-70
2022/11/23 10:03:57;;;;;;;14.38;4.22;;;9.20;99.90;;;;;;5058056;28;20047;-70
2022/11/23 10:06:33;;;;;;;15.82;4.40;;;9.20;99.90;;;;;;5074248;28;20052;-70
2022/11/23 10:09:07;;;;;;;15.20;4.55;;;9.20;99.90;;;;;;5073421;28;20088;-71
2022/11/23 10:11:48;;;;;;;14.27;5.22;;;9.20;99.90;;;;;;5047802;28;20084;-70
2022/11/23 10:14:19;;;;;;;;;;;9.20;99.90;;;;;;5043514;28;20102;-70
2022/11/23 10:17:00;;;;;;;14.40;4.35;;;9.10;99.90;;;;;;5059424;28;20011;-70
2022/11/23 10:19:56;;;;;;;18.42;4.90;;;9.10;99.90;;;;;;5061768;28;20048;-70
2022/11/23 10:22:44;;;;;;;14.73;3.50;;;9.10;99.90;;;;;;5075760;28;20044;-69
2022/11/23 10:25:19;;;;;;;17.15;4.38;;;9.20;99.90;;;;;;5062417;28;20044;-71
2022/11/23 10:27:47;;;;;;;18.15;4.30;;;9.30;99.90;;;;;;5013083;28;20045;-69
2022/11/23 10:30:14;;;;;;;19.80;4.28;;;9.30;99.90;;;;;;5041376;28;20057;-69
2022/11/23 10:33:01;;;;;;;14.93;3.75;;;9.40;99.90;;;;;;5051758;28;20040;-69
2022/11/23 10:35:31;;;;;;;11.85;3.67;;;9.30;99.90;;;;;;5031382;28;20057;-73
2022/11/23 10:38:17;;;;;;;16.17;4.07;;;9.40;99.90;;;;;;5047198;28;20891;-72
2022/11/23 10:41:09;;;;;;;14.02;3.40;;;9.40;99.90;;;;;;5053818;28;20045;-73
2022/11/23 10:43:43;;;;;;;17.50;4.18;;;9.30;99.90;;;;;;5082728;28;20524;-72
2022/11/23 10:46:37;;;;;;;18.17;4.43;;;9.40;99.90;;;;;;5042745;28;20071;-71
2022/11/23 10:49:27;;;;;;;16.88;3.55;;;9.40;99.90;;;;;;5020299;28;20037;-72
2022/11/23 10:51:57;;;;;;;13.20;4.40;;;9.40;99.90;;;;;;5067444;28;20048;-71
2022/11/23 10:54:35;;;;;;;16.73;4.07;;;9.30;99.90;;;;;;5056738;28;20308;-75
2022/11/23 10:57:18;;;;;;;13.90;3.78;;;9.20;99.90;;;;;;5048321;28;20536;-75
2022/11/23 11:00:08;;;;;;;13.65;3.10;;;9.20;99.90;;;;;;5052584;28;20055;-74
2022/11/23 11:02:45;;;;;;;18.73;4.20;;;9.30;99.90;;;;;;5054383;28;20057;-72
2022/11/23 11:05:26;;;;;;;13.75;3.17;;;9.30;99.90;;;;;;5017918;28;20055;-73
2022/11/23 11:07:57;;;;;;;13.15;3.80;;;9.30;99.90;;;;;;5052505;28;20044;-74
2022/11/23 11:10:36;;;;;;;14.98;3.58;;;9.40;99.90;;;;;;5043385;28;20570;-73
2022/11/23 11:13:02;;;;;;;13.82;4.13;;;9.40;99.90;;;;;;5016099;28;20272;-70
2022/11/23 11:15:28;;;;;;;15.68;3.85;;;9.60;99.90;;;;;;5034345;28;20568;-71
2022/11/23 11:17:56;;;;;;;17.00;4.88;;;9.60;99.90;;;;;;5064760;28;20045;-72
2022/11/23 11:20:26;;;;;;;21.45;4.60;;;9.60;99.90;;;;;;5038541;28;20052;-71
2022/11/23 11:22:53;;;;;;;18.00;4.38;;;9.70;99.90;;;;;;5070752;28;20040;-73
2022/11/23 11:25:39;;;;;;;17.55;3.88;;;9.80;99.90;;;;;;5062375;28;20037;-72
2022/11/23 11:28:27;;;;;;;16.80;4.78;;;9.90;99.90;;;;;;5032180;28;20079;-73
2022/11/23 11:31:03;;;;;;;14.30;4.00;;;10.00;99.90;;;;;;5061061;28;20036;-72
2022/11/23 11:33:54;;;;;;;15.23;3.78;;;10.20;99.90;;;;;;5060905;28;20128;-71
2022/11/23 11:36:21;;;;;;;11.85;3.50;;;10.20;99.90;;;;;;5030446;28;20229;-71
2022/11/23 11:38:50;;;;;;;16.02;3.15;;;10.40;99.90;;;;;;5061212;28;20048;-72
2022/11/23 11:41:18;;;;;;;13.77;3.45;;;10.50;99.90;;;;;;5038032;28;20048;-71
2022/11/23 11:43:48;;;;;;;14.88;3.25;;;10.60;99.90;;;;;;5066066;28;20048;-71
2022/11/23 11:46:15;;;;;;;;;;;10.70;99.90;;;;;;5043242;28;20063;-67
2022/11/23 11:48:54;;;;;;;13.13;3.92;;;10.80;99.90;;;;;;5037372;28;19927;-68
2022/11/23 11:51:29;;;;;;;14.48;3.50;;;11.10;99.90;;;;;;5043209;28;20053;-67
2022/11/23 11:54:16;;;;;;;9.48;3.08;;;11.10;99.90;;;;;;5048485;28;20411;-67
2022/11/23 11:56:45;;;;;;;13.05;3.10;;;11.30;99.90;;;;;;5061713;28;20041;-67
2022/11/23 11:59:42;;;;;;;12.47;2.57;;;11.40;99.90;;;;;;5049516;28;20041;-67
2022/11/23 12:02:26;;;;;;;12.57;2.75;;;11.60;99.90;;;;;;5040773;28;20045;-67
2022/11/23 12:05:15;;;;;;;12.07;3.05;;;11.60;99.90;;;;;;5040868;28;20057;-67
2022/11/23 12:08:00;;;;;;;13.18;2.65;;;11.60;99.90;;;;;;5045208;28;20193;-67
2022/11/23 12:10:35;;;;;;;12.27;2.67;;;11.60;99.90;;;;;;5037787;28;20056;-67
2022/11/23 12:13:01;;;;;;;12.13;2.92;;;11.70;99.90;;;;;;5035769;28;20053;-67
2022/11/23 12:15:37;;;;;;;12.40;2.60;;;11.80;99.90;;;;;;5071902;28;20041;-67
2022/11/23 12:18:18;;;;;;;13.57;2.97;;;11.90;99.90;;;;;;5044551;28;20052;-67
2022/11/23 12:21:18;;;;;;;13.50;4.47;;;12.00;99.90;;;;;;5059414;28;20049;-67
2022/11/23 12:23:57;;;;;;;11.43;2.95;;;12.00;99.90;;;;;;4962950;28;20069;-67
2022/11/23 12:26:46;;;;;;;12.88;2.80;;;11.80;99.90;;;;;;4953066;28;20498;-68
2022/11/23 12:29:27;;;;;;;10.15;2.92;;;11.80;99.90;;;;;;4948697;29;20047;-67
2022/11/23 12:31:58;;;;;;;12.75;3.30;;;11.70;99.90;;;;;;4956849;28;20250;-67
2022/11/23 12:34:41;;;;;;;9.07;3.00;;;11.70;99.90;;;;;;4946993;28;20619;-68
2022/11/23 12:37:20;;;;;;;10.20;2.67;;;11.60;99.90;;;;;;4965576;28;20158;-67
2022/11/23 12:40:12;;;;;;;10.70;2.50;;;11.50;99.90;;;;;;4968035;28;20051;-67
2022/11/23 12:42:45;;;;;;;13.18;2.88;;;11.50;99.90;;;;;;4958349;28;20112;-67
2022/11/23 12:45:38;;;;;;;11.65;2.53;;;11.60;99.90;;;;;;4938816;29;20051;-68
2022/11/23 12:48:33;;;;;;;8.80;3.05;;;11.50;99.90;;;;;;4961720;28;20146;-67
2022/11/23 12:51:20;;;;;;;11.93;2.88;;;11.60;99.90;;;;;;4947272;28;20039;-67
2022/11/23 12:53:57;;;;;;;14.40;2.50;;;11.50;99.90;;;;;;4966476;28;20141;-67